Time;durP1;ratioP1;P1;durP2;ratioP2;P2;SDS_P1;SDS_P2;PMS_P1;PMS_P2;Temp;Humidity;BMP_temperature;BMP_pressure;BME280_temperature;BME280_humidity;BME280_pressure;Samples;Min_cycle;Max_cycle;Signal;HPM_P1;HPM_P2
2022/04/28 00:02:15;;;;;;;1.83;1.10;;;14.10;68.80;;;;;;5114461;28;20080;-64
2022/04/28 00:04:41;;;;;;;3.28;1.10;;;14.10;68.20;;;;;;5114815;28;20533;-64
2022/04/28 00:07:06;;;;;;;2.00;1.20;;;14.00;67.90;;;;;;5114234;28;20023;-65
2022/04/28 00:09:32;;;;;;;2.17;1.10;;;14.00;69.50;;;;;;5114129;28;20096;-64
2022/04/28 00:11:57;;;;;;;2.90;1.02;;;14.00;69.40;;;;;;5113794;28;20368;-65
2022/04/28 00:14:23;;;;;;;7.20;1.33;;;14.00;70.00;;;;;;5114400;28;20020;-64
2022/04/28 00:16:49;;;;;;;9.45;1.60;;;14.00;69.10;;;;;;5114300;28;20043;-64
2022/04/28 00:19:15;;;;;;;5.90;1.30;;;14.00;69.10;;;;;;5114064;28;20046;-64
2022/04/28 00:21:40;;;;;;;4.55;1.33;;;14.00;68.70;;;;;;5113966;28;20023;-64
2022/04/28 00:24:06;;;;;;;26.20;1.77;;;13.90;68.90;;;;;;5114170;28;20114;-65
2022/04/28 00:26:32;;;;;;;47.88;3.38;;;13.90;69.10;;;;;;5114233;28;20016;-64
2022/04/28 00:28:58;;;;;;;47.75;3.75;;;13.90;68.60;;;;;;5113937;28;20031;-64
2022/04/28 00:31:23;;;;;;;29.65;2.10;;;13.90;68.80;;;;;;5114117;28;20038;-67
2022/04/28 00:33:49;;;;;;;32.78;2.67;;;13.90;68.60;;;;;;5113935;28;20038;-68
2022/04/28 00:36:15;;;;;;;33.92;2.22;;;13.90;69.30;;;;;;5114083;28;20057;-65
2022/04/28 00:38:41;;;;;;;13.05;1.48;;;13.80;69.30;;;;;;5114222;28;20024;-64
2022/04/28 00:41:08;;;;;;;9.85;1.90;;;13.80;69.70;;;;;;5114134;28;20023;-64
2022/04/28 00:43:53;;;;;;;8.13;1.60;;;13.80;69.20;;;;;;5113624;28;20487;-64
2022/04/28 00:46:20;;;;;;;4.28;1.10;;;13.80;69.30;;;;;;5113646;28;20018;-64
2022/04/28 00:51:31;;;;;;;1.20;0.90;;;13.70;69.20;;;;;;5113791;28;20127;-64
2022/04/28 00:53:59;;;;;;;1.60;0.90;;;13.70;69.50;;;;;;5113906;28;20028;-64
2022/04/28 00:56:26;;;;;;;4.05;0.82;;;13.70;68.90;;;;;;5113794;28;20057;-64
2022/04/28 00:58:54;;;;;;;3.72;1.10;;;13.70;69.80;;;;;;5111342;28;20510;-65
2022/04/28 01:01:20;;;;;;;5.45;1.10;;;13.70;70.00;;;;;;5110764;28;20038;-65
2022/04/28 01:03:46;;;;;;;2.72;1.00;;;13.60;69.80;;;;;;5110649;28;20611;-64
2022/04/28 01:06:12;;;;;;;2.72;1.10;;;13.60;69.50;;;;;;5113073;28;20020;-65
2022/04/28 01:08:39;;;;;;;2.63;1.20;;;13.70;69.50;;;;;;5113362;28;20059;-65
2022/04/28 01:11:05;;;;;;;1.67;1.20;;;13.70;70.20;;;;;;5113556;28;20418;-64
2022/04/28 01:13:31;;;;;;;2.95;1.20;;;13.60;69.30;;;;;;5113237;28;20110;-64
2022/04/28 01:15:57;;;;;;;2.55;1.38;;;13.60;70.50;;;;;;5113137;28;20052;-65
2022/04/28 01:18:23;;;;;;;3.65;1.13;;;13.60;71.00;;;;;;5113227;28;20409;-64
2022/04/28 01:20:48;;;;;;;3.50;1.40;;;13.50;70.10;;;;;;5112945;28;20392;-64
2022/04/28 01:23:14;;;;;;;4.85;1.60;;;13.40;70.30;;;;;;5113603;28;20043;-65
2022/04/28 01:25:40;;;;;;;3.78;1.65;;;13.30;71.50;;;;;;5116020;28;20031;-65
2022/04/28 01:28:06;;;;;;;7.93;1.60;;;13.30;72.40;;;;;;5117236;28;20024;-64
2022/04/28 01:30:34;;;;;;;2.20;1.50;;;13.20;72.80;;;;;;5117302;28;20464;-64
2022/04/28 01:33:00;;;;;;;2.65;1.65;;;13.20;72.40;;;;;;5117368;28;20437;-65
2022/04/28 01:35:26;;;;;;;1.92;1.48;;;13.20;72.60;;;;;;5117398;28;20019;-65
2022/04/28 01:37:52;;;;;;;4.63;1.73;;;13.10;72.60;;;;;;5117328;28;20042;-65
2022/04/28 01:40:20;;;;;;;6.10;1.40;;;13.20;72.60;;;;;;5117065;28;20080;-66
2022/04/28 01:42:47;;;;;;;8.75;1.80;;;13.10;71.80;;;;;;5116992;28;20031;-64
2022/04/28 01:45:14;;;;;;;2.50;1.55;;;13.10;71.40;;;;;;5117304;28;20031;-64
2022/04/28 01:47:41;;;;;;;3.85;1.55;;;13.00;72.40;;;;;;5117027;28;20076;-64
2022/04/28 01:50:09;;;;;;;1.63;1.50;;;13.00;73.20;;;;;;5117083;28;20023;-65
2022/04/28 01:55:21;;;;;;;7.90;1.70;;;12.90;73.20;;;;;;5117212;28;20035;-65
2022/04/28 01:57:47;;;;;;;3.70;1.20;;;12.90;74.00;;;;;;5116650;28;20019;-64
2022/04/28 02:00:13;;;;;;;4.03;1.60;;;12.90;74.20;;;;;;5116897;28;20034;-65
2022/04/28 02:02:39;;;;;;;3.45;1.33;;;12.90;74.80;;;;;;5116774;28;20464;-64
2022/04/28 02:05:07;;;;;;;5.80;2.08;;;12.80;74.00;;;;;;5116814;28;20063;-64
2022/04/28 02:07:33;;;;;;;3.72;1.70;;;12.90;73.40;;;;;;5116787;28;20020;-64
2022/04/28 02:10:00;;;;;;;2.22;1.45;;;12.80;73.10;;;;;;5116834;28;20080;-64
2022/04/28 02:12:26;;;;;;;9.75;1.95;;;12.70;74.00;;;;;;5116686;28;20028;-64
2022/04/28 02:14:53;;;;;;;9.27;1.98;;;12.70;74.20;;;;;;5116669;28;20030;-64
2022/04/28 02:17:26;;;;;;;3.53;1.80;;;12.70;74.40;;;;;;5116306;28;20028;-65
2022/04/28 02:19:52;;;;;;;;;;;12.70;74.50;;;;;;5116884;28;20068;-64
2022/04/28 02:22:19;;;;;;;3.78;1.70;;;12.70;74.90;;;;;;5116731;28;20420;-68
2022/04/28 02:24:44;;;;;;;5.32;1.98;;;12.60;74.80;;;;;;5116604;28;20118;-64
2022/04/28 02:27:11;;;;;;;6.60;1.73;;;12.60;74.30;;;;;;5116480;28;20062;-64
2022/04/28 02:29:37;;;;;;;7.45;2.22;;;12.60;74.20;;;;;;5116285;28;20073;-64
2022/04/28 02:32:03;;;;;;;10.68;1.77;;;12.60;74.90;;;;;;5116353;28;20552;-64
2022/04/28 02:34:29;;;;;;;10.55;1.88;;;12.60;74.90;;;;;;5116169;28;20483;-64
2022/04/28 02:36:56;;;;;;;14.85;1.90;;;12.60;74.30;;;;;;5115998;28;20387;-64
2022/04/28 02:39:22;;;;;;;8.25;1.77;;;12.50;74.10;;;;;;5116263;28;20368;-64
2022/04/28 02:41:47;;;;;;;8.88;1.88;;;12.50;75.00;;;;;;5115665;28;20073;-64
2022/04/28 02:44:13;;;;;;;12.05;1.80;;;12.40;75.30;;;;;;5115975;28;20059;-64
2022/04/28 02:46:42;;;;;;;13.27;2.35;;;12.50;74.80;;;;;;5116099;28;20030;-64
2022/04/28 02:49:12;;;;;;;12.75;1.90;;;12.40;73.90;;;;;;5116171;28;20024;-64
2022/04/28 02:51:38;;;;;;;8.30;1.60;;;12.40;74.00;;;;;;5116065;28;20412;-63
2022/04/28 02:54:04;;;;;;;12.00;1.73;;;12.30;74.00;;;;;;5115920;28;20020;-64
2022/04/28 02:56:30;;;;;;;6.90;1.90;;;12.30;74.40;;;;;;5115590;28;20027;-64
2022/04/28 02:58:56;;;;;;;4.65;1.60;;;12.30;73.90;;;;;;5115978;28;20057;-64
2022/04/28 03:01:22;;;;;;;5.40;1.50;;;12.30;75.10;;;;;;5115839;28;20024;-64
2022/04/28 03:03:49;;;;;;;3.10;1.58;;;12.30;74.90;;;;;;5115338;28;20079;-64
2022/04/28 03:11:42;;;;;;;4.25;1.58;;;12.20;74.90;;;;;;5115495;28;20031;-64
2022/04/28 03:14:12;;;;;;;2.47;1.52;;;12.20;74.80;;;;;;5115532;28;20028;-64
2022/04/28 03:16:37;;;;;;;11.48;1.80;;;12.20;74.90;;;;;;5115262;28;20038;-64
2022/04/28 03:19:04;;;;;;;4.13;1.58;;;12.10;73.70;;;;;;5115585;28;20411;-64
2022/04/28 03:21:30;;;;;;;9.50;1.88;;;12.10;74.00;;;;;;5115141;28;20433;-64
2022/04/28 03:23:56;;;;;;;8.05;1.92;;;12.00;74.20;;;;;;5114950;28;20032;-64
2022/04/28 03:26:22;;;;;;;5.80;2.05;;;12.00;74.50;;;;;;5115181;28;20380;-64
2022/04/28 03:28:48;;;;;;;7.90;1.70;;;12.00;74.60;;;;;;5115227;28;20160;-64
2022/04/28 03:31:13;;;;;;;3.05;1.60;;;12.00;75.40;;;;;;5115252;28;20474;-64
2022/04/28 03:33:39;;;;;;;3.30;1.73;;;11.90;75.70;;;;;;5115222;28;20030;-64
2022/04/28 03:36:50;;;;;;;8.82;1.88;;;11.90;75.10;;;;;;5114994;28;20027;-65
2022/04/28 03:38:51;;;;;;;5.93;1.90;;;11.90;75.10;;;;;;5114750;28;20491;-64
2022/04/28 03:41:16;;;;;;;2.53;1.67;;;11.80;75.30;;;;;;5115040;28;20023;-64
2022/04/28 03:43:44;;;;;;;2.63;1.40;;;11.90;75.20;;;;;;5114827;28;20126;-64
2022/04/28 03:46:10;;;;;;;2.80;1.70;;;11.80;75.40;;;;;;5114812;28;20020;-64
2022/04/28 03:48:37;;;;;;;3.08;2.00;;;11.80;75.90;;;;;;5114035;28;20020;-64
2022/04/28 03:51:03;;;;;;;5.40;1.60;;;11.80;76.40;;;;;;5114515;28;20569;-64
2022/04/28 03:53:30;;;;;;;5.40;1.80;;;11.80;76.00;;;;;;5114616;28;20027;-64
2022/04/28 03:55:57;;;;;;;11.50;1.73;;;11.70;76.10;;;;;;5114847;28;20480;-64
2022/04/28 03:58:25;;;;;;;2.63;1.65;;;11.80;76.10;;;;;;5114686;28;20026;-64
2022/04/28 04:00:51;;;;;;;3.25;1.30;;;11.70;76.20;;;;;;5114767;28;20062;-64
2022/04/28 04:03:19;;;;;;;5.32;1.77;;;11.70;75.90;;;;;;5114336;28;20056;-64
2022/04/28 04:05:45;;;;;;;4.38;1.52;;;11.70;76.00;;;;;;5114453;28;20023;-64
2022/04/28 04:08:11;;;;;;;6.35;1.70;;;11.70;75.60;;;;;;5114554;28;20110;-64
2022/04/28 04:10:37;;;;;;;1.90;1.40;;;11.70;75.20;;;;;;5114283;28;20444;-64
2022/04/28 04:13:03;;;;;;;4.97;1.58;;;11.60;75.60;;;;;;5114348;28;20051;-64
2022/04/28 04:15:29;;;;;;;3.63;1.60;;;11.60;76.40;;;;;;5114111;28;20023;-64
2022/04/28 04:17:55;;;;;;;2.35;1.48;;;11.60;76.10;;;;;;5114345;28;20023;-64
2022/04/28 04:20:20;;;;;;;6.75;1.63;;;11.70;75.60;;;;;;5114407;28;20077;-67
2022/04/28 04:22:46;;;;;;;3.45;1.42;;;11.70;75.20;;;;;;5113959;28;20031;-64
2022/04/28 04:25:12;;;;;;;7.20;1.88;;;11.70;75.20;;;;;;5114363;28;20028;-64
2022/04/28 04:27:38;;;;;;;5.78;1.83;;;11.70;74.80;;;;;;5114286;28;20034;-64
2022/04/28 04:32:17;;;;;;;3.08;1.77;;;11.70;76.00;;;;;;5114447;28;20032;-64
2022/04/28 04:32:50;;;;;;;7.30;1.77;;;11.70;75.70;;;;;;5113824;28;20058;-64
2022/04/28 04:35:17;;;;;;;22.63;2.10;;;11.70;76.20;;;;;;5113784;28;20028;-63
2022/04/28 04:37:43;;;;;;;16.42;2.08;;;11.70;75.70;;;;;;5113648;28;20027;-64
2022/04/28 04:40:11;;;;;;;10.18;2.15;;;11.70;75.10;;;;;;5113745;28;20032;-64
2022/04/28 04:42:37;;;;;;;9.05;1.58;;;11.60;75.00;;;;;;5113879;28;20068;-64
2022/04/28 04:45:03;;;;;;;13.80;2.30;;;11.60;75.00;;;;;;5113578;28;20059;-63
2022/04/28 04:47:29;;;;;;;9.82;2.63;;;11.60;75.10;;;;;;5113683;28;20024;-64
2022/04/28 04:49:54;;;;;;;9.40;2.33;;;11.60;75.40;;;;;;5113632;28;20019;-64
2022/04/28 04:52:20;;;;;;;8.75;2.00;;;11.60;75.40;;;;;;5113621;28;20072;-64
2022/04/28 04:54:46;;;;;;;7.97;2.67;;;11.60;75.80;;;;;;5113553;28;20032;-64
2022/04/28 04:57:11;;;;;;;8.52;2.20;;;11.60;76.30;;;;;;5113846;28;20050;-64
2022/04/28 04:59:37;;;;;;;7.00;2.00;;;11.60;76.20;;;;;;5113480;28;20069;-64
2022/04/28 05:02:03;;;;;;;4.63;2.25;;;11.60;75.90;;;;;;5113282;28;20032;-64
2022/04/28 05:04:29;;;;;;;9.15;2.20;;;11.60;75.90;;;;;;5113323;28;20100;-64
2022/04/28 05:06:55;;;;;;;9.48;2.33;;;11.60;76.40;;;;;;5113451;28;20023;-64
2022/04/28 05:09:20;;;;;;;11.60;2.42;;;11.60;76.50;;;;;;5113696;28;20028;-64
2022/04/28 05:11:46;;;;;;;8.48;2.55;;;11.60;76.30;;;;;;5113552;28;20365;-64
2022/04/28 05:14:12;;;;;;;11.15;2.50;;;11.60;77.10;;;;;;5113342;28;20496;-64
2022/04/28 05:16:37;;;;;;;13.43;2.90;;;11.60;77.00;;;;;;5113211;28;20050;-64
2022/04/28 05:19:03;;;;;;;8.57;2.80;;;11.60;77.00;;;;;;5113301;28;20420;-64
2022/04/28 05:21:29;;;;;;;8.95;2.60;;;11.60;77.20;;;;;;5113513;28;20094;-64
2022/04/28 05:23:54;;;;;;;13.90;3.15;;;11.70;77.50;;;;;;5113458;28;20070;-64
2022/04/28 05:26:20;;;;;;;21.50;3.70;;;11.70;77.10;;;;;;5113491;28;20020;-64
2022/04/28 05:28:47;;;;;;;31.15;3.97;;;11.80;76.70;;;;;;5113176;28;20066;-64
2022/04/28 05:31:12;;;;;;;22.85;3.90;;;11.80;76.80;;;;;;5113081;28;20020;-66
2022/04/28 05:33:41;;;;;;;22.90;4.10;;;11.80;76.70;;;;;;5113114;28;20032;-64
2022/04/28 05:36:09;;;;;;;18.63;3.38;;;11.90;77.00;;;;;;5113121;28;20419;-65
2022/04/28 05:38:36;;;;;;;17.80;3.83;;;11.90;77.30;;;;;;5111992;28;20054;-63
2022/04/28 05:41:03;;;;;;;16.85;3.65;;;11.90;76.60;;;;;;5112984;28;20020;-63
2022/04/28 05:46:14;;;;;;;18.13;3.47;;;12.00;76.80;;;;;;5113348;28;20031;-64
2022/04/28 05:48:40;;;;;;;15.55;3.30;;;12.10;77.10;;;;;;5112937;28;20019;-63
2022/04/28 05:51:05;;;;;;;17.33;3.35;;;12.10;77.10;;;;;;5112627;28;20030;-63
2022/04/28 05:53:31;;;;;;;17.15;3.65;;;12.10;77.00;;;;;;5113128;28;20027;-63
2022/04/28 05:55:56;;;;;;;6.63;2.33;;;12.20;77.10;;;;;;5112782;28;20016;-63
2022/04/28 05:58:22;;;;;;;10.93;2.70;;;12.20;76.80;;;;;;5112969;28;20020;-63
2022/04/28 06:00:48;;;;;;;7.65;2.85;;;12.20;76.90;;;;;;5113035;28;20089;-64
2022/04/28 06:03:14;;;;;;;6.43;2.20;;;12.30;76.90;;;;;;5112613;28;20043;-64
2022/04/28 06:05:40;;;;;;;4.68;2.38;;;12.40;76.10;;;;;;5113094;28;20439;-63
2022/04/28 06:08:06;;;;;;;6.15;2.53;;;12.40;76.00;;;;;;5112850;28;20044;-63
2022/04/28 06:10:32;;;;;;;6.65;2.47;;;12.40;75.90;;;;;;5113259;28;20428;-63
2022/04/28 06:12:58;;;;;;;7.85;2.38;;;12.50;75.30;;;;;;5116373;28;20079;-63
2022/04/28 06:15:23;;;;;;;5.93;2.28;;;12.60;75.20;;;;;;5114627;28;20454;-63
2022/04/28 06:17:49;;;;;;;4.88;2.22;;;12.60;75.20;;;;;;5116080;28;20028;-62
2022/04/28 06:20:15;;;;;;;3.40;2.22;;;12.70;75.00;;;;;;5115786;28;20440;-64
2022/04/28 06:22:41;;;;;;;10.82;2.53;;;12.80;74.60;;;;;;5114463;28;20494;-66
2022/04/28 06:25:07;;;;;;;7.57;2.58;;;12.80;74.20;;;;;;5115087;28;20031;-63
2022/04/28 06:27:34;;;;;;;10.02;2.55;;;12.90;74.10;;;;;;5114966;28;20027;-62
2022/04/28 06:30:00;;;;;;;5.57;2.40;;;13.00;74.00;;;;;;5115541;28;20058;-63
2022/04/28 06:32:26;;;;;;;7.97;2.67;;;13.00;74.10;;;;;;5115673;28;20020;-62
2022/04/28 06:34:51;;;;;;;5.78;2.75;;;13.10;74.00;;;;;;5116342;28;20062;-64
2022/04/28 06:37:17;;;;;;;7.13;2.50;;;13.20;73.20;;;;;;5114613;28;20034;-63
2022/04/28 06:39:43;;;;;;;7.78;2.28;;;13.20;72.90;;;;;;5113949;28;20114;-63
2022/04/28 06:42:09;;;;;;;7.03;2.10;;;13.30;73.50;;;;;;5114415;28;20031;-62
2022/04/28 06:44:36;;;;;;;13.20;2.50;;;13.40;73.40;;;;;;5114660;28;20399;-63
2022/04/28 06:47:05;;;;;;;6.82;2.22;;;13.40;73.70;;;;;;5115408;28;20031;-64
2022/04/28 06:49:31;;;;;;;3.17;2.13;;;13.50;74.00;;;;;;5114778;28;20356;-63
2022/04/28 06:51:56;;;;;;;4.10;2.30;;;13.50;73.10;;;;;;5115227;28;20024;-62
2022/04/28 06:54:22;;;;;;;5.28;2.00;;;13.60;72.90;;;;;;5112516;28;20028;-64
2022/04/28 06:56:48;;;;;;;7.75;1.92;;;13.70;73.00;;;;;;5114847;28;20100;-63
2022/04/28 06:59:14;;;;;;;4.15;2.00;;;13.70;73.60;;;;;;5115288;28;20410;-64
2022/04/28 07:01:40;;;;;;;7.95;2.08;;;13.80;73.70;;;;;;5114904;28;20081;-63
2022/04/28 07:04:05;;;;;;;4.68;2.13;;;13.80;72.60;;;;;;5113343;28;20051;-63
2022/04/28 07:06:31;;;;;;;7.25;2.30;;;13.90;72.10;;;;;;5114486;28;20471;-63
2022/04/28 07:08:57;;;;;;;2.15;1.83;;;13.90;72.30;;;;;;5114727;28;20020;-62
2022/04/28 07:11:24;;;;;;;9.80;2.22;;;14.00;71.70;;;;;;5114637;28;20062;-63
2022/04/28 07:13:51;;;;;;;3.42;1.90;;;14.10;70.20;;;;;;5114627;28;20474;-62
2022/04/28 07:16:16;;;;;;;4.75;1.60;;;14.10;68.00;;;;;;5114771;28;20034;-63
2022/04/28 07:18:42;;;;;;;4.55;1.98;;;14.10;67.60;;;;;;5114635;28;20028;-63
2022/04/28 07:21:08;;;;;;;8.10;2.03;;;14.10;66.30;;;;;;5114882;28;20437;-62
2022/04/28 07:23:33;;;;;;;3.13;1.60;;;14.10;66.50;;;;;;5114503;28;20377;-63
2022/04/28 07:25:59;;;;;;;9.48;1.90;;;14.20;67.30;;;;;;5114376;28;20023;-63
2022/04/28 07:28:25;;;;;;;5.70;1.90;;;14.30;67.30;;;;;;5114810;28;20059;-63
2022/04/28 07:30:50;;;;;;;2.25;1.52;;;14.40;67.80;;;;;;5114700;28;20047;-63
2022/04/28 07:33:16;;;;;;;5.28;1.48;;;14.40;67.20;;;;;;5096237;28;20046;-63
2022/04/28 07:35:42;;;;;;;2.45;1.48;;;14.50;67.10;;;;;;5114401;28;20077;-66
2022/04/28 07:38:08;;;;;;;4.32;1.50;;;14.60;66.90;;;;;;5114236;28;20028;-63
2022/04/28 07:40:35;;;;;;;2.78;1.60;;;14.70;64.30;;;;;;5113819;28;20464;-62
2022/04/28 07:43:01;;;;;;;5.90;1.58;;;14.80;63.80;;;;;;5114524;28;20035;-64
2022/04/28 07:45:27;;;;;;;5.72;1.45;;;14.90;62.70;;;;;;5114224;28;20027;-64
2022/04/28 07:47:54;;;;;;;5.70;1.50;;;14.90;62.70;;;;;;5113906;28;20111;-64
2022/04/28 07:50:20;;;;;;;4.18;1.50;;;15.00;63.10;;;;;;5113764;28;20024;-62
2022/04/28 07:52:46;;;;;;;3.40;1.50;;;15.00;62.80;;;;;;5114070;28;20042;-67
2022/04/28 07:55:11;;;;;;;4.45;1.40;;;15.10;62.00;;;;;;5114088;28;20464;-64
2022/04/28 07:57:37;;;;;;;3.83;1.48;;;15.20;61.90;;;;;;5113847;28;20023;-63
2022/04/28 08:00:05;;;;;;;3.38;1.23;;;15.30;62.40;;;;;;5113947;28;20023;-62
2022/04/28 08:02:32;;;;;;;3.22;1.40;;;15.40;63.00;;;;;;5113171;28;20462;-63
2022/04/28 08:04:57;;;;;;;5.97;1.50;;;15.50;62.00;;;;;;5113509;28;20031;-63
2022/04/28 08:07:23;;;;;;;3.97;1.40;;;15.50;60.40;;;;;;5113185;28;20027;-63
2022/04/28 08:09:50;;;;;;;6.63;1.95;;;15.60;57.50;;;;;;5113098;28;20069;-63
2022/04/28 08:12:15;;;;;;;3.03;1.63;;;15.70;56.00;;;;;;5113446;28;20452;-63
2022/04/28 08:14:41;;;;;;;2.17;1.38;;;15.80;54.20;;;;;;5113769;28;20103;-63
2022/04/28 08:17:08;;;;;;;2.72;1.50;;;15.90;53.00;;;;;;5113569;28;20093;-63
2022/04/28 08:19:34;;;;;;;3.05;1.52;;;16.00;51.50;;;;;;5113682;28;20028;-63
2022/04/28 08:22:00;;;;;;;2.22;1.40;;;16.00;52.10;;;;;;5113105;28;20384;-64
2022/04/28 08:24:26;;;;;;;2.83;1.70;;;16.10;52.50;;;;;;5112847;28;20035;-67
2022/04/28 08:26:54;;;;;;;2.03;1.10;;;16.10;48.70;;;;;;5110336;27;20034;-62
2022/04/28 08:29:23;;;;;;;3.42;1.33;;;16.20;49.80;;;;;;5113050;28;20023;-63
2022/04/28 08:31:49;;;;;;;3.28;1.77;;;16.30;49.50;;;;;;5112961;28;20463;-66
2022/04/28 08:34:17;;;;;;;4.22;1.60;;;16.30;48.10;;;;;;5112680;28;20035;-66
2022/04/28 08:36:44;;;;;;;8.43;1.42;;;16.40;47.40;;;;;;5113350;28;20024;-67
2022/04/28 08:39:10;;;;;;;3.05;1.40;;;16.40;46.90;;;;;;5094829;28;20086;-67
2022/04/28 08:41:38;;;;;;;2.25;1.50;;;16.50;49.00;;;;;;5112832;28;20479;-66
2022/04/28 08:44:05;;;;;;;2.97;1.50;;;16.60;47.80;;;;;;5112741;28;20596;-67
2022/04/28 08:49:16;;;;;;;1.90;1.60;;;16.80;44.70;;;;;;5112635;28;20034;-67
2022/04/28 08:51:43;;;;;;;2.60;1.40;;;16.80;45.90;;;;;;5111329;28;20094;-68
2022/04/28 08:54:12;;;;;;;3.30;1.40;;;16.80;45.20;;;;;;5111285;28;20019;-67
2022/04/28 08:56:39;;;;;;;13.55;1.48;;;16.90;45.70;;;;;;5111776;28;20031;-68
2022/04/28 08:59:05;;;;;;;2.88;1.60;;;17.00;47.50;;;;;;5112825;28;20032;-67
2022/04/28 09:01:31;;;;;;;4.65;1.67;;;17.10;48.40;;;;;;5112845;28;20034;-68
2022/04/28 09:03:59;;;;;;;3.38;1.58;;;17.20;47.40;;;;;;5112685;28;20502;-67
2022/04/28 09:06:28;;;;;;;3.28;1.60;;;17.20;45.50;;;;;;5111863;28;20023;-67
2022/04/28 09:08:55;;;;;;;3.53;1.55;;;17.30;45.70;;;;;;5112011;28;20034;-67
2022/04/28 09:11:26;;;;;;;4.70;1.50;;;17.40;45.20;;;;;;5112312;28;20220;-67
2022/04/28 09:14:09;;;;;;;4.75;1.58;;;17.40;46.20;;;;;;5112431;28;20031;-67
2022/04/28 09:16:38;;;;;;;5.20;2.83;;;17.50;44.60;;;;;;5112563;28;20055;-67
2022/04/28 09:19:04;;;;;;;5.10;2.33;;;17.60;43.80;;;;;;5112211;28;20030;-68
2022/04/28 09:21:34;;;;;;;4.40;1.95;;;17.60;43.20;;;;;;5112446;28;20102;-67
2022/04/28 09:24:00;;;;;;;4.75;2.03;;;17.60;44.30;;;;;;5112983;28;20123;-66
2022/04/28 09:26:26;;;;;;;2.78;1.92;;;17.70;44.30;;;;;;5113141;28;20446;-67
2022/04/28 09:28:53;;;;;;;2.30;1.40;;;17.70;44.00;;;;;;5113573;28;20099;-67
2022/04/28 09:31:20;;;;;;;2.60;1.45;;;17.80;43.40;;;;;;5113187;28;20116;-66
2022/04/28 09:33:48;;;;;;;2.85;1.27;;;17.80;43.10;;;;;;5112935;28;20030;-68
2022/04/28 09:36:16;;;;;;;2.58;1.50;;;17.80;44.70;;;;;;5113138;28;20016;-67
2022/04/28 09:38:41;;;;;;;5.28;1.52;;;17.90;44.10;;;;;;5113085;28;20031;-68
2022/04/28 09:43:56;;;;;;;4.35;2.53;;;18.00;43.70;;;;;;5113099;28;20042;-68
2022/04/28 09:46:23;;;;;;;4.18;1.60;;;18.10;43.40;;;;;;5115353;28;20026;-68
2022/04/28 09:48:51;;;;;;;3.80;1.80;;;18.10;43.00;;;;;;5117090;28;20085;-68
2022/04/28 09:51:23;;;;;;;2.28;1.60;;;18.20;42.50;;;;;;5116922;28;20049;-68
2022/04/28 09:53:53;;;;;;;4.47;1.50;;;18.20;42.40;;;;;;5116916;28;20468;-67
2022/04/28 09:56:27;;;;;;;11.10;2.10;;;18.30;42.70;;;;;;5116974;28;20031;-67
2022/04/28 09:58:55;;;;;;;4.55;1.70;;;18.30;42.80;;;;;;5116555;28;20515;-68
2022/04/28 10:01:21;;;;;;;4.47;1.77;;;18.40;41.20;;;;;;5115231;28;20107;-67
2022/04/28 10:03:47;;;;;;;2.70;1.65;;;18.40;42.00;;;;;;5114973;28;20154;-67
2022/04/28 10:06:13;;;;;;;2.13;1.50;;;18.50;42.90;;;;;;5116210;28;20080;-66
2022/04/28 10:08:39;;;;;;;4.57;1.90;;;18.50;41.90;;;;;;5116192;28;20110;-67
2022/04/28 10:11:06;;;;;;;4.05;1.83;;;18.60;43.40;;;;;;5115853;28;20023;-67
2022/04/28 10:13:32;;;;;;;3.67;2.00;;;18.70;43.50;;;;;;5116632;28;20028;-67
2022/04/28 10:16:04;;;;;;;4.40;1.95;;;18.80;43.10;;;;;;5116576;28;20501;-67
2022/04/28 10:18:35;;;;;;;3.00;1.65;;;18.90;43.70;;;;;;5116517;28;20059;-67
2022/04/28 10:21:05;;;;;;;2.43;1.50;;;19.00;45.10;;;;;;5116708;28;20023;-67
2022/04/28 10:32:23;;;;;;;3.10;2.13;;;19.10;40.20;;;;;;5116586;28;20058;-67
2022/04/28 10:35:06;;;;;;;2.97;1.75;;;19.20;41.00;;;;;;5116214;28;20077;-67
2022/04/28 10:37:45;;;;;;;7.47;2.00;;;19.30;39.90;;;;;;5115608;28;20020;-68
2022/04/28 10:40:16;;;;;;;2.55;1.80;;;19.30;40.60;;;;;;5115776;28;20024;-68
2022/04/28 10:42:45;;;;;;;3.85;2.05;;;19.40;39.50;;;;;;5116016;28;20093;-67
2022/04/28 10:45:28;;;;;;;2.75;2.00;;;19.40;37.60;;;;;;5115967;28;20036;-68
2022/04/28 10:51:02;;;;;;;4.45;2.13;;;19.60;41.60;;;;;;5115811;28;20107;-67
2022/04/28 10:53:27;;;;;;;2.90;2.13;;;19.80;43.20;;;;;;5115839;28;20095;-67
2022/04/28 10:55:53;;;;;;;4.28;2.10;;;19.90;43.90;;;;;;5115794;28;20157;-67
2022/04/28 10:58:24;;;;;;;3.00;1.60;;;20.00;42.20;;;;;;5115324;28;20065;-67
2022/04/28 11:01:00;;;;;;;2.72;1.65;;;20.10;40.60;;;;;;5115673;28;20102;-67
2022/04/28 11:03:48;;;;;;;4.38;2.00;;;20.20;41.60;;;;;;5115522;28;20385;-67
2022/04/28 11:06:18;;;;;;;4.57;2.20;;;20.30;40.80;;;;;;5115507;28;20471;-67
2022/04/28 11:08:47;;;;;;;4.47;2.60;;;20.40;42.00;;;;;;5112753;28;20031;-69
2022/04/28 11:11:13;;;;;;;6.22;2.45;;;20.50;40.40;;;;;;5112634;28;20042;-68
2022/04/28 11:13:46;;;;;;;7.05;2.35;;;20.60;39.80;;;;;;5112885;28;20016;-68
2022/04/28 11:16:13;;;;;;;5.60;2.55;;;20.60;41.40;;;;;;5115101;28;20031;-68
2022/04/28 11:18:39;;;;;;;7.63;2.78;;;20.70;40.20;;;;;;5115133;28;20480;-68
2022/04/28 11:21:06;;;;;;;5.72;3.20;;;20.70;39.90;;;;;;5114926;28;20026;-68
2022/04/28 11:23:36;;;;;;;3.55;2.42;;;20.80;41.00;;;;;;5115099;28;20028;-68
2022/04/28 11:26:02;;;;;;;3.95;2.47;;;20.90;40.60;;;;;;5115175;28;20024;-71
2022/04/28 11:28:30;;;;;;;4.55;2.20;;;21.00;39.80;;;;;;5115060;28;20019;-68
2022/04/28 11:30:58;;;;;;;2.90;2.20;;;21.10;42.00;;;;;;5114738;28;20092;-68
2022/04/28 11:33:24;;;;;;;8.48;2.00;;;21.10;37.50;;;;;;5114812;28;20024;-69
2022/04/28 11:35:50;;;;;;;3.75;2.30;;;21.10;37.40;;;;;;5115019;28;20024;-69
2022/04/28 11:38:24;;;;;;;4.15;1.90;;;21.10;38.50;;;;;;5114858;28;20103;-69
2022/04/28 11:41:00;;;;;;;5.35;2.05;;;21.10;37.90;;;;;;5114850;28;20019;-68
2022/04/28 11:43:31;;;;;;;6.35;2.05;;;21.00;37.50;;;;;;5114885;28;20493;-69
2022/04/28 11:45:58;;;;;;;3.42;1.98;;;21.10;38.90;;;;;;5114270;28;20475;-69
2022/04/28 11:48:30;;;;;;;4.63;1.75;;;21.10;40.00;;;;;;5114618;28;20024;-68
2022/04/28 11:51:05;;;;;;;3.53;2.20;;;21.20;39.50;;;;;;5114740;28;20509;-69
2022/04/28 11:53:45;;;;;;;3.72;2.00;;;21.30;39.50;;;;;;5114418;28;20336;-69
2022/04/28 11:56:19;;;;;;;4.68;2.55;;;21.40;37.00;;;;;;5114364;28;20032;-69
2022/04/28 11:58:49;;;;;;;4.40;2.13;;;21.40;38.40;;;;;;5114416;28;20402;-69
2022/04/28 12:01:16;;;;;;;6.00;1.98;;;21.50;37.80;;;;;;5114173;28;20077;-69
2022/04/28 12:03:54;;;;;;;6.60;1.92;;;21.60;39.20;;;;;;5114021;28;20139;-69
2022/04/28 12:06:21;;;;;;;5.63;2.20;;;21.70;38.60;;;;;;5114194;28;20039;-69
2022/04/28 12:14:32;;;;;;;6.57;2.80;;;21.90;35.50;;;;;;5114466;28;20069;-69
2022/04/28 12:19:54;;;;;;;6.90;2.42;;;21.90;35.50;;;;;;5114472;28;20098;-69
2022/04/28 12:22:27;;;;;;;4.90;2.03;;;21.90;36.70;;;;;;5113001;27;20030;-69
2022/04/28 12:24:53;;;;;;;3.47;2.20;;;21.90;37.50;;;;;;5113479;28;20031;-68
2022/04/28 12:27:19;;;;;;;4.03;2.10;;;21.90;36.80;;;;;;5113552;28;20027;-69
2022/04/28 12:29:52;;;;;;;5.97;2.20;;;21.90;35.60;;;;;;5113269;28;20054;-67
2022/04/28 12:32:22;;;;;;;6.05;2.08;;;21.90;36.70;;;;;;5111861;28;20411;-69
2022/04/28 12:35:03;;;;;;;4.25;2.33;;;21.90;37.70;;;;;;5112279;28;20027;-69
2022/04/28 12:37:29;;;;;;;3.38;1.98;;;22.00;37.90;;;;;;5112680;28;20502;-72
2022/04/28 12:39:57;;;;;;;4.38;2.03;;;22.10;37.10;;;;;;5111700;28;20020;-67
2022/04/28 12:42:29;;;;;;;2.50;1.65;;;22.20;37.60;;;;;;5112286;28;20031;-69
2022/04/28 12:45:03;;;;;;;4.97;2.10;;;22.20;35.30;;;;;;5111018;28;20483;-69
2022/04/28 12:47:35;;;;;;;6.03;2.42;;;22.20;36.30;;;;;;5110761;28;20287;-69
2022/04/28 12:50:17;;;;;;;4.22;2.10;;;22.20;36.20;;;;;;5110967;28;20138;-72
2022/04/28 12:52:43;;;;;;;27.30;3.95;;;22.30;36.40;;;;;;5113012;28;20090;-70
2022/04/28 12:55:09;;;;;;;6.65;2.63;;;22.40;36.60;;;;;;5112791;28;20039;-69
2022/04/28 12:57:35;;;;;;;2.25;1.88;;;22.50;38.30;;;;;;5113626;28;20023;-74
2022/04/28 13:00:04;;;;;;;3.30;1.80;;;22.60;39.70;;;;;;5113698;28;20042;-74
2022/04/28 13:02:31;;;;;;;4.22;2.00;;;22.70;39.10;;;;;;5113085;28;20053;-73
2022/04/28 13:05:08;;;;;;;3.45;2.30;;;22.90;39.50;;;;;;5112167;28;20484;-72
2022/04/28 13:07:34;;;;;;;3.70;1.98;;;22.90;36.60;;;;;;5112095;28;20465;-70
2022/04/28 13:09:59;;;;;;;5.47;2.17;;;22.90;36.80;;;;;;5113460;28;20035;-66
2022/04/28 13:12:25;;;;;;;3.45;1.88;;;22.90;34.70;;;;;;5113172;28;20098;-67
2022/04/28 13:14:52;;;;;;;4.28;2.10;;;22.80;34.50;;;;;;5112849;28;20040;-67
2022/04/28 13:17:18;;;;;;;2.97;2.05;;;22.70;35.10;;;;;;5113556;28;20375;-67
2022/04/28 13:19:44;;;;;;;5.30;2.38;;;22.80;37.00;;;;;;5114348;28;20126;-67
2022/04/28 13:22:10;;;;;;;3.35;1.73;;;22.80;38.60;;;;;;5117425;28;20098;-70
2022/04/28 13:24:35;;;;;;;3.60;1.83;;;22.90;35.80;;;;;;5116723;28;20077;-70
2022/04/28 13:27:02;;;;;;;4.70;2.50;;;22.90;36.80;;;;;;5117159;28;20495;-70